sensor_id;sensor_type;location;lat;lon;timestamp;P1;durP1;ratioP1;P2;durP2;ratioP2
77591;SDS011;66891;46.884;17.436;2023-05-29T00:00:10;11.98;;;5.00;;
77591;SDS011;66891;46.884;17.436;2023-05-29T00:02:40;10.90;;;5.03;;
77591;SDS011;66891;46.884;17.436;2023-05-29T00:05:11;14.20;;;5.60;;
77591;SDS011;66891;46.884;17.436;2023-05-29T00:07:39;11.63;;;4.32;;
77591;SDS011;66891;46.884;17.436;2023-05-29T00:10:08;13.60;;;5.07;;
77591;SDS011;66891;46.884;17.436;2023-05-29T00:12:38;12.10;;;5.10;;
77591;SDS011;66891;46.884;17.436;2023-05-29T00:15:06;12.10;;;4.73;;
77591;SDS011;66891;46.884;17.436;2023-05-29T00:17:34;12.25;;;4.90;;
77591;SDS011;66891;46.884;17.436;2023-05-29T00:20:01;12.73;;;5.05;;
77591;SDS011;66891;46.884;17.436;2023-05-29T00:22:36;11.90;;;4.75;;
77591;SDS011;66891;46.884;17.436;2023-05-29T00:25:06;12.82;;;5.10;;
77591;SDS011;66891;46.884;17.436;2023-05-29T00:27:34;11.60;;;5.20;;
77591;SDS011;66891;46.884;17.436;2023-05-29T00:30:04;13.35;;;5.35;;
77591;SDS011;66891;46.884;17.436;2023-05-29T00:32:32;10.68;;;4.90;;
77591;SDS011;66891;46.884;17.436;2023-05-29T00:34:59;15.27;;;5.25;;
77591;SDS011;66891;46.884;17.436;2023-05-29T00:37:27;13.65;;;5.30;;
77591;SDS011;66891;46.884;17.436;2023-05-29T00:39:54;12.57;;;5.50;;
77591;SDS011;66891;46.884;17.436;2023-05-29T00:42:22;15.85;;;5.90;;
77591;SDS011;66891;46.884;17.436;2023-05-29T00:44:49;15.13;;;6.25;;
77591;SDS011;66891;46.884;17.436;2023-05-29T00:47:18;17.25;;;6.78;;
77591;SDS011;66891;46.884;17.436;2023-05-29T00:49:45;16.10;;;6.25;;
77591;SDS011;66891;46.884;17.436;2023-05-29T00:52:13;13.73;;;5.87;;
77591;SDS011;66891;46.884;17.436;2023-05-29T00:54:42;12.63;;;5.50;;
77591;SDS011;66891;46.884;17.436;2023-05-29T00:57:12;12.55;;;5.30;;
77591;SDS011;66891;46.884;17.436;2023-05-29T00:59:40;12.70;;;5.10;;
77591;SDS011;66891;46.884;17.436;2023-05-29T01:02:08;11.27;;;4.85;;
77591;SDS011;66891;46.884;17.436;2023-05-29T01:04:37;12.20;;;4.73;;
77591;SDS011;66891;46.884;17.436;2023-05-29T01:07:05;13.90;;;4.90;;
77591;SDS011;66891;46.884;17.436;2023-05-29T01:09:33;13.65;;;5.07;;
77591;SDS011;66891;46.884;17.436;2023-05-29T01:12:06;11.43;;;4.45;;
77591;SDS011;66891;46.884;17.436;2023-05-29T01:14:50;9.93;;;4.63;;
77591;SDS011;66891;46.884;17.436;2023-05-29T01:17:30;13.30;;;4.60;;
77591;SDS011;66891;46.884;17.436;2023-05-29T01:20:08;13.00;;;4.72;;
77591;SDS011;66891;46.884;17.436;2023-05-29T01:22:57;12.48;;;5.22;;
77591;SDS011;66891;46.884;17.436;2023-05-29T01:25:35;10.18;;;4.35;;
77591;SDS011;66891;46.884;17.436;2023-05-29T01:28:17;11.93;;;4.50;;
77591;SDS011;66891;46.884;17.436;2023-05-29T01:30:52;12.37;;;4.90;;
77591;SDS011;66891;46.884;17.436;2023-05-29T01:33:21;12.73;;;5.18;;
77591;SDS011;66891;46.884;17.436;2023-05-29T01:35:48;14.00;;;5.78;;
77591;SDS011;66891;46.884;17.436;2023-05-29T01:38:16;13.63;;;5.10;;
77591;SDS011;66891;46.884;17.436;2023-05-29T01:40:44;11.27;;;5.15;;
77591;SDS011;66891;46.884;17.436;2023-05-29T01:43:12;11.50;;;4.23;;
77591;SDS011;66891;46.884;17.436;2023-05-29T01:45:41;12.50;;;4.65;;
77591;SDS011;66891;46.884;17.436;2023-05-29T01:48:09;12.25;;;5.03;;
77591;SDS011;66891;46.884;17.436;2023-05-29T01:50:36;15.15;;;5.20;;
77591;SDS011;66891;46.884;17.436;2023-05-29T01:53:04;11.45;;;5.00;;
77591;SDS011;66891;46.884;17.436;2023-05-29T01:55:32;12.57;;;5.50;;
77591;SDS011;66891;46.884;17.436;2023-05-29T01:57:59;14.15;;;5.13;;
77591;SDS011;66891;46.884;17.436;2023-05-29T02:00:28;12.05;;;4.68;;
77591;SDS011;66891;46.884;17.436;2023-05-29T02:02:58;12.73;;;5.28;;
77591;SDS011;66891;46.884;17.436;2023-05-29T02:05:29;12.90;;;4.45;;
77591;SDS011;66891;46.884;17.436;2023-05-29T02:07:56;13.43;;;4.90;;
77591;SDS011;66891;46.884;17.436;2023-05-29T02:10:24;13.68;;;5.07;;
77591;SDS011;66891;46.884;17.436;2023-05-29T02:12:51;12.30;;;4.93;;
77591;SDS011;66891;46.884;17.436;2023-05-29T02:15:18;12.05;;;4.88;;
77591;SDS011;66891;46.884;17.436;2023-05-29T02:17:46;13.32;;;4.75;;
77591;SDS011;66891;46.884;17.436;2023-05-29T02:20:14;13.17;;;4.63;;
77591;SDS011;66891;46.884;17.436;2023-05-29T02:22:42;12.45;;;4.80;;
77591;SDS011;66891;46.884;17.436;2023-05-29T02:25:09;13.00;;;4.65;;
77591;SDS011;66891;46.884;17.436;2023-05-29T02:27:37;14.63;;;4.88;;
77591;SDS011;66891;46.884;17.436;2023-05-29T02:30:05;12.18;;;4.80;;
77591;SDS011;66891;46.884;17.436;2023-05-29T02:32:33;11.93;;;4.50;;
77591;SDS011;66891;46.884;17.436;2023-05-29T02:35:00;14.57;;;5.00;;
77591;SDS011;66891;46.884;17.436;2023-05-29T02:37:29;12.48;;;4.90;;
77591;SDS011;66891;46.884;17.436;2023-05-29T02:39:56;12.05;;;4.90;;
77591;SDS011;66891;46.884;17.436;2023-05-29T02:42:24;14.18;;;5.00;;
77591;SDS011;66891;46.884;17.436;2023-05-29T02:44:51;12.93;;;4.60;;
77591;SDS011;66891;46.884;17.436;2023-05-29T02:47:18;15.07;;;4.38;;
77591;SDS011;66891;46.884;17.436;2023-05-29T02:49:45;15.73;;;5.00;;
77591;SDS011;66891;46.884;17.436;2023-05-29T02:52:13;12.32;;;5.00;;
77591;SDS011;66891;46.884;17.436;2023-05-29T02:54:41;12.05;;;5.20;;
77591;SDS011;66891;46.884;17.436;2023-05-29T02:57:09;12.67;;;4.70;;
77591;SDS011;66891;46.884;17.436;2023-05-29T02:59:38;13.60;;;5.25;;
77591;SDS011;66891;46.884;17.436;2023-05-29T03:02:05;11.00;;;4.53;;
77591;SDS011;66891;46.884;17.436;2023-05-29T03:04:33;12.10;;;5.20;;
77591;SDS011;66891;46.884;17.436;2023-05-29T03:07:00;13.32;;;4.88;;
77591;SDS011;66891;46.884;17.436;2023-05-29T03:09:27;12.93;;;4.60;;
77591;SDS011;66891;46.884;17.436;2023-05-29T03:11:56;13.60;;;4.57;;
77591;SDS011;66891;46.884;17.436;2023-05-29T03:14:23;13.60;;;4.72;;
77591;SDS011;66891;46.884;17.436;2023-05-29T03:16:51;12.32;;;4.38;;
77591;SDS011;66891;46.884;17.436;2023-05-29T03:19:19;11.82;;;4.50;;
77591;SDS011;66891;46.884;17.436;2023-05-29T03:21:46;14.13;;;4.80;;
77591;SDS011;66891;46.884;17.436;2023-05-29T03:24:14;12.02;;;4.32;;
77591;SDS011;66891;46.884;17.436;2023-05-29T03:26:41;14.70;;;4.90;;
77591;SDS011;66891;46.884;17.436;2023-05-29T03:29:10;11.65;;;4.43;;
77591;SDS011;66891;46.884;17.436;2023-05-29T03:31:37;14.27;;;4.45;;
77591;SDS011;66891;46.884;17.436;2023-05-29T03:34:05;12.50;;;4.80;;
77591;SDS011;66891;46.884;17.436;2023-05-29T03:36:32;12.25;;;4.97;;
77591;SDS011;66891;46.884;17.436;2023-05-29T03:38:59;12.27;;;4.57;;
77591;SDS011;66891;46.884;17.436;2023-05-29T03:41:27;16.70;;;6.03;;
77591;SDS011;66891;46.884;17.436;2023-05-29T03:43:54;12.35;;;4.97;;
77591;SDS011;66891;46.884;17.436;2023-05-29T03:46:23;15.90;;;5.53;;
77591;SDS011;66891;46.884;17.436;2023-05-29T03:48:50;14.00;;;6.25;;
77591;SDS011;66891;46.884;17.436;2023-05-29T03:51:17;14.02;;;5.25;;
77591;SDS011;66891;46.884;17.436;2023-05-29T03:53:45;12.52;;;4.95;;
77591;SDS011;66891;46.884;17.436;2023-05-29T03:56:12;13.85;;;5.88;;
77591;SDS011;66891;46.884;17.436;2023-05-29T03:58:40;15.87;;;6.27;;
77591;SDS011;66891;46.884;17.436;2023-05-29T04:01:07;17.65;;;6.25;;
77591;SDS011;66891;46.884;17.436;2023-05-29T04:03:37;14.38;;;5.90;;
77591;SDS011;66891;46.884;17.436;2023-05-29T04:06:05;14.20;;;6.32;;
77591;SDS011;66891;46.884;17.436;2023-05-29T04:08:33;14.57;;;6.13;;
77591;SDS011;66891;46.884;17.436;2023-05-29T04:11:01;15.90;;;6.73;;
77591;SDS011;66891;46.884;17.436;2023-05-29T04:13:30;17.85;;;7.18;;
77591;SDS011;66891;46.884;17.436;2023-05-29T04:15:57;14.73;;;6.10;;
77591;SDS011;66891;46.884;17.436;2023-05-29T04:18:24;16.67;;;6.47;;
77591;SDS011;66891;46.884;17.436;2023-05-29T04:20:54;16.02;;;7.03;;
77591;SDS011;66891;46.884;17.436;2023-05-29T04:23:21;17.97;;;7.00;;
77591;SDS011;66891;46.884;17.436;2023-05-29T04:25:48;16.80;;;7.00;;
77591;SDS011;66891;46.884;17.436;2023-05-29T04:28:17;17.02;;;6.85;;
77591;SDS011;66891;46.884;17.436;2023-05-29T04:30:47;13.88;;;6.60;;
77591;SDS011;66891;46.884;17.436;2023-05-29T04:33:14;15.13;;;7.72;;
77591;SDS011;66891;46.884;17.436;2023-05-29T04:35:42;17.60;;;6.63;;
77591;SDS011;66891;46.884;17.436;2023-05-29T04:38:11;15.95;;;6.40;;
77591;SDS011;66891;46.884;17.436;2023-05-29T04:40:38;16.65;;;6.93;;
77591;SDS011;66891;46.884;17.436;2023-05-29T04:43:07;17.70;;;7.55;;
77591;SDS011;66891;46.884;17.436;2023-05-29T04:45:34;21.23;;;7.05;;
77591;SDS011;66891;46.884;17.436;2023-05-29T04:48:03;13.53;;;5.63;;
77591;SDS011;66891;46.884;17.436;2023-05-29T04:50:31;15.38;;;7.43;;
77591;SDS011;66891;46.884;17.436;2023-05-29T04:52:58;14.85;;;6.90;;
77591;SDS011;66891;46.884;17.436;2023-05-29T04:55:27;14.00;;;7.03;;
77591;SDS011;66891;46.884;17.436;2023-05-29T04:57:54;13.93;;;7.05;;
77591;SDS011;66891;46.884;17.436;2023-05-29T05:00:22;14.87;;;6.77;;
77591;SDS011;66891;46.884;17.436;2023-05-29T05:02:49;15.05;;;6.47;;
77591;SDS011;66891;46.884;17.436;2023-05-29T05:05:17;15.52;;;6.70;;
77591;SDS011;66891;46.884;17.436;2023-05-29T05:07:45;14.60;;;6.20;;
77591;SDS011;66891;46.884;17.436;2023-05-29T05:10:12;14.35;;;6.40;;
77591;SDS011;66891;46.884;17.436;2023-05-29T05:12:41;13.97;;;6.03;;
77591;SDS011;66891;46.884;17.436;2023-05-29T05:15:09;15.02;;;6.50;;
77591;SDS011;66891;46.884;17.436;2023-05-29T05:17:37;13.55;;;5.65;;
77591;SDS011;66891;46.884;17.436;2023-05-29T05:20:04;12.25;;;5.28;;
77591;SDS011;66891;46.884;17.436;2023-05-29T05:22:32;13.50;;;5.45;;
77591;SDS011;66891;46.884;17.436;2023-05-29T05:25:00;14.27;;;5.23;;
77591;SDS011;66891;46.884;17.436;2023-05-29T05:27:27;12.75;;;5.32;;
77591;SDS011;66891;46.884;17.436;2023-05-29T05:29:56;14.65;;;5.22;;
77591;SDS011;66891;46.884;17.436;2023-05-29T05:32:23;12.38;;;4.78;;
77591;SDS011;66891;46.884;17.436;2023-05-29T05:34:50;14.02;;;5.15;;
77591;SDS011;66891;46.884;17.436;2023-05-29T05:37:17;13.53;;;5.33;;
77591;SDS011;66891;46.884;17.436;2023-05-29T05:39:45;12.63;;;5.07;;
77591;SDS011;66891;46.884;17.436;2023-05-29T05:42:12;12.18;;;5.10;;
77591;SDS011;66891;46.884;17.436;2023-05-29T05:44:40;11.98;;;4.88;;
77591;SDS011;66891;46.884;17.436;2023-05-29T05:47:09;13.85;;;5.35;;
77591;SDS011;66891;46.884;17.436;2023-05-29T05:49:37;14.53;;;4.70;;
77591;SDS011;66891;46.884;17.436;2023-05-29T05:52:04;11.95;;;4.90;;
77591;SDS011;66891;46.884;17.436;2023-05-29T05:54:32;12.55;;;4.88;;
77591;SDS011;66891;46.884;17.436;2023-05-29T05:56:59;12.23;;;4.80;;
77591;SDS011;66891;46.884;17.436;2023-05-29T05:59:27;12.63;;;5.00;;
77591;SDS011;66891;46.884;17.436;2023-05-29T06:01:54;12.27;;;4.70;;
77591;SDS011;66891;46.884;17.436;2023-05-29T06:04:23;10.82;;;4.13;;
77591;SDS011;66891;46.884;17.436;2023-05-29T06:06:50;12.35;;;4.40;;
77591;SDS011;66891;46.884;17.436;2023-05-29T06:09:18;12.73;;;4.80;;
77591;SDS011;66891;46.884;17.436;2023-05-29T06:11:48;13.55;;;4.97;;
77591;SDS011;66891;46.884;17.436;2023-05-29T06:14:15;11.63;;;4.43;;
77591;SDS011;66891;46.884;17.436;2023-05-29T06:16:43;12.95;;;4.90;;
77591;SDS011;66891;46.884;17.436;2023-05-29T06:19:10;13.95;;;5.15;;
77591;SDS011;66891;46.884;17.436;2023-05-29T06:21:39;11.73;;;3.97;;
77591;SDS011;66891;46.884;17.436;2023-05-29T06:24:06;11.35;;;4.88;;
77591;SDS011;66891;46.884;17.436;2023-05-29T06:26:33;12.80;;;4.90;;
77591;SDS011;66891;46.884;17.436;2023-05-29T06:29:01;13.23;;;4.57;;
77591;SDS011;66891;46.884;17.436;2023-05-29T06:31:28;12.85;;;4.60;;
77591;SDS011;66891;46.884;17.436;2023-05-29T06:33:55;12.60;;;4.65;;
77591;SDS011;66891;46.884;17.436;2023-05-29T06:36:23;12.68;;;4.80;;
77591;SDS011;66891;46.884;17.436;2023-05-29T06:38:52;13.03;;;4.73;;
77591;SDS011;66891;46.884;17.436;2023-05-29T06:41:19;11.10;;;4.25;;
77591;SDS011;66891;46.884;17.436;2023-05-29T06:43:47;12.40;;;4.43;;
77591;SDS011;66891;46.884;17.436;2023-05-29T06:46:15;11.68;;;4.40;;
77591;SDS011;66891;46.884;17.436;2023-05-29T06:48:43;12.65;;;4.65;;
77591;SDS011;66891;46.884;17.436;2023-05-29T06:51:10;10.30;;;3.80;;
77591;SDS011;66891;46.884;17.436;2023-05-29T06:53:38;12.30;;;4.38;;
77591;SDS011;66891;46.884;17.436;2023-05-29T06:56:07;10.85;;;4.78;;
77591;SDS011;66891;46.884;17.436;2023-05-29T06:58:35;12.65;;;4.43;;
77591;SDS011;66891;46.884;17.436;2023-05-29T07:01:02;10.40;;;3.88;;
77591;SDS011;66891;46.884;17.436;2023-05-29T07:03:33;9.47;;;4.20;;
77591;SDS011;66891;46.884;17.436;2023-05-29T07:06:03;11.52;;;4.28;;
77591;SDS011;66891;46.884;17.436;2023-05-29T07:08:30;9.77;;;3.75;;
77591;SDS011;66891;46.884;17.436;2023-05-29T07:10:58;12.23;;;4.38;;
77591;SDS011;66891;46.884;17.436;2023-05-29T07:13:27;10.23;;;3.85;;
77591;SDS011;66891;46.884;17.436;2023-05-29T07:15:54;11.73;;;4.60;;
77591;SDS011;66891;46.884;17.436;2023-05-29T07:18:21;10.68;;;4.43;;
77591;SDS011;66891;46.884;17.436;2023-05-29T07:20:49;11.32;;;4.40;;
77591;SDS011;66891;46.884;17.436;2023-05-29T07:23:17;10.23;;;4.35;;
77591;SDS011;66891;46.884;17.436;2023-05-29T07:25:44;10.30;;;4.07;;
77591;SDS011;66891;46.884;17.436;2023-05-29T07:28:11;9.77;;;3.60;;
77591;SDS011;66891;46.884;17.436;2023-05-29T07:30:49;11.77;;;3.80;;
77591;SDS011;66891;46.884;17.436;2023-05-29T07:33:16;11.07;;;3.97;;
77591;SDS011;66891;46.884;17.436;2023-05-29T07:35:44;10.90;;;4.38;;
77591;SDS011;66891;46.884;17.436;2023-05-29T07:38:11;11.73;;;4.35;;
77591;SDS011;66891;46.884;17.436;2023-05-29T07:40:38;9.20;;;4.03;;
77591;SDS011;66891;46.884;17.436;2023-05-29T07:43:18;12.85;;;4.40;;
77591;SDS011;66891;46.884;17.436;2023-05-29T07:45:45;9.93;;;3.85;;
77591;SDS011;66891;46.884;17.436;2023-05-29T07:48:14;10.05;;;4.10;;
77591;SDS011;66891;46.884;17.436;2023-05-29T07:50:41;10.32;;;3.70;;
77591;SDS011;66891;46.884;17.436;2023-05-29T07:53:09;11.10;;;5.13;;
77591;SDS011;66891;46.884;17.436;2023-05-29T07:55:36;9.63;;;3.83;;
77591;SDS011;66891;46.884;17.436;2023-05-29T07:58:03;10.30;;;4.38;;
77591;SDS011;66891;46.884;17.436;2023-05-29T08:00:31;11.15;;;4.40;;
77591;SDS011;66891;46.884;17.436;2023-05-29T08:02:58;8.70;;;4.22;;
77591;SDS011;66891;46.884;17.436;2023-05-29T08:05:27;10.90;;;4.30;;
77591;SDS011;66891;46.884;17.436;2023-05-29T08:07:54;10.93;;;4.40;;
77591;SDS011;66891;46.884;17.436;2023-05-29T08:10:21;12.98;;;4.50;;
77591;SDS011;66891;46.884;17.436;2023-05-29T08:12:49;9.80;;;4.35;;
77591;SDS011;66891;46.884;17.436;2023-05-29T08:15:17;11.90;;;5.10;;
77591;SDS011;66891;46.884;17.436;2023-05-29T08:17:45;11.63;;;4.23;;
77591;SDS011;66891;46.884;17.436;2023-05-29T08:20:12;11.73;;;4.07;;
77591;SDS011;66891;46.884;17.436;2023-05-29T08:22:41;11.85;;;4.65;;
77591;SDS011;66891;46.884;17.436;2023-05-29T08:25:08;9.60;;;4.10;;
77591;SDS011;66891;46.884;17.436;2023-05-29T08:27:36;10.98;;;4.07;;
77591;SDS011;66891;46.884;17.436;2023-05-29T08:30:03;8.87;;;3.80;;
77591;SDS011;66891;46.884;17.436;2023-05-29T08:32:31;10.57;;;4.20;;
77591;SDS011;66891;46.884;17.436;2023-05-29T08:34:58;9.85;;;3.97;;
77591;SDS011;66891;46.884;17.436;2023-05-29T08:37:26;9.63;;;4.43;;
77591;SDS011;66891;46.884;17.436;2023-05-29T08:39:54;9.68;;;4.32;;
77591;SDS011;66891;46.884;17.436;2023-05-29T08:42:24;12.17;;;4.40;;
77591;SDS011;66891;46.884;17.436;2023-05-29T08:44:56;11.18;;;4.32;;
77591;SDS011;66891;46.884;17.436;2023-05-29T08:47:24;9.65;;;3.97;;
77591;SDS011;66891;46.884;17.436;2023-05-29T08:49:53;9.27;;;4.00;;
77591;SDS011;66891;46.884;17.436;2023-05-29T08:52:22;10.88;;;4.22;;
77591;SDS011;66891;46.884;17.436;2023-05-29T08:54:52;10.60;;;3.97;;
77591;SDS011;66891;46.884;17.436;2023-05-29T08:57:21;12.27;;;4.68;;
77591;SDS011;66891;46.884;17.436;2023-05-29T08:59:51;10.05;;;4.10;;
77591;SDS011;66891;46.884;17.436;2023-05-29T09:02:18;10.60;;;4.32;;
77591;SDS011;66891;46.884;17.436;2023-05-29T09:04:46;9.32;;;4.10;;
77591;SDS011;66891;46.884;17.436;2023-05-29T09:07:15;9.87;;;4.47;;
77591;SDS011;66891;46.884;17.436;2023-05-29T09:09:44;8.93;;;3.97;;
77591;SDS011;66891;46.884;17.436;2023-05-29T09:12:11;11.50;;;4.03;;
77591;SDS011;66891;46.884;17.436;2023-05-29T09:14:41;9.15;;;3.92;;
77591;SDS011;66891;46.884;17.436;2023-05-29T09:17:09;9.10;;;4.25;;
77591;SDS011;66891;46.884;17.436;2023-05-29T09:19:38;9.07;;;3.77;;
77591;SDS011;66891;46.884;17.436;2023-05-29T09:22:07;8.68;;;3.70;;
77591;SDS011;66891;46.884;17.436;2023-05-29T09:24:37;10.27;;;4.38;;
77591;SDS011;66891;46.884;17.436;2023-05-29T09:27:07;9.13;;;3.90;;
77591;SDS011;66891;46.884;17.436;2023-05-29T09:29:38;9.27;;;4.10;;
77591;SDS011;66891;46.884;17.436;2023-05-29T09:32:09;9.83;;;4.07;;
77591;SDS011;66891;46.884;17.436;2023-05-29T09:34:38;10.05;;;3.50;;
77591;SDS011;66891;46.884;17.436;2023-05-29T09:37:06;10.02;;;3.97;;
77591;SDS011;66891;46.884;17.436;2023-05-29T09:39:44;11.82;;;4.30;;
77591;SDS011;66891;46.884;17.436;2023-05-29T09:42:13;10.35;;;3.88;;
77591;SDS011;66891;46.884;17.436;2023-05-29T09:44:41;8.43;;;3.70;;
77591;SDS011;66891;46.884;17.436;2023-05-29T09:47:10;9.75;;;3.92;;
77591;SDS011;66891;46.884;17.436;2023-05-29T09:49:41;10.48;;;4.05;;
77591;SDS011;66891;46.884;17.436;2023-05-29T09:52:10;9.68;;;4.38;;
77591;SDS011;66891;46.884;17.436;2023-05-29T09:54:42;9.40;;;4.13;;
77591;SDS011;66891;46.884;17.436;2023-05-29T09:57:13;9.23;;;3.67;;
77591;SDS011;66891;46.884;17.436;2023-05-29T09:59:42;8.68;;;4.28;;
77591;SDS011;66891;46.884;17.436;2023-05-29T10:02:19;10.98;;;3.92;;
77591;SDS011;66891;46.884;17.436;2023-05-29T10:04:47;8.68;;;4.00;;
77591;SDS011;66891;46.884;17.436;2023-05-29T10:07:20;11.93;;;4.18;;
77591;SDS011;66891;46.884;17.436;2023-05-29T10:09:52;9.47;;;4.27;;
77591;SDS011;66891;46.884;17.436;2023-05-29T10:12:25;10.57;;;4.55;;
77591;SDS011;66891;46.884;17.436;2023-05-29T10:14:53;9.23;;;4.10;;
77591;SDS011;66891;46.884;17.436;2023-05-29T10:17:26;9.65;;;4.18;;
77591;SDS011;66891;46.884;17.436;2023-05-29T10:19:59;10.20;;;3.72;;
77591;SDS011;66891;46.884;17.436;2023-05-29T10:22:33;8.67;;;4.03;;
77591;SDS011;66891;46.884;17.436;2023-05-29T10:25:02;10.00;;;4.05;;
77591;SDS011;66891;46.884;17.436;2023-05-29T10:27:31;10.05;;;4.45;;
77591;SDS011;66891;46.884;17.436;2023-05-29T10:29:59;10.00;;;3.95;;
77591;SDS011;66891;46.884;17.436;2023-05-29T10:32:38;9.45;;;4.28;;
77591;SDS011;66891;46.884;17.436;2023-05-29T10:35:24;8.90;;;4.30;;
77591;SDS011;66891;46.884;17.436;2023-05-29T10:37:59;19.17;;;4.97;;
77591;SDS011;66891;46.884;17.436;2023-05-29T10:40:35;14.88;;;5.20;;
77591;SDS011;66891;46.884;17.436;2023-05-29T10:43:03;14.15;;;5.28;;
77591;SDS011;66891;46.884;17.436;2023-05-29T10:45:51;15.02;;;5.53;;
77591;SDS011;66891;46.884;17.436;2023-05-29T10:48:39;13.07;;;4.33;;
77591;SDS011;66891;46.884;17.436;2023-05-29T10:51:24;9.10;;;4.20;;
77591;SDS011;66891;46.884;17.436;2023-05-29T10:53:53;11.23;;;4.32;;
77591;SDS011;66891;46.884;17.436;2023-05-29T10:56:21;10.07;;;3.53;;
77591;SDS011;66891;46.884;17.436;2023-05-29T10:58:54;12.38;;;4.22;;
77591;SDS011;66891;46.884;17.436;2023-05-29T11:01:27;11.57;;;4.27;;
77591;SDS011;66891;46.884;17.436;2023-05-29T11:06:51;22.13;;;4.40;;
77591;SDS011;66891;46.884;17.436;2023-05-29T11:09:29;13.68;;;5.10;;
77591;SDS011;66891;46.884;17.436;2023-05-29T11:12:16;12.85;;;5.80;;
77591;SDS011;66891;46.884;17.436;2023-05-29T11:15:03;12.05;;;5.32;;
77591;SDS011;66891;46.884;17.436;2023-05-29T11:17:44;12.70;;;6.10;;
77591;SDS011;66891;46.884;17.436;2023-05-29T11:20:16;14.63;;;7.37;;
77591;SDS011;66891;46.884;17.436;2023-05-29T11:22:56;14.40;;;7.35;;
77591;SDS011;66891;46.884;17.436;2023-05-29T11:25:28;14.55;;;8.23;;
77591;SDS011;66891;46.884;17.436;2023-05-29T11:27:59;14.57;;;6.82;;
77591;SDS011;66891;46.884;17.436;2023-05-29T11:30:27;14.02;;;7.10;;
77591;SDS011;66891;46.884;17.436;2023-05-29T11:32:54;12.90;;;6.40;;
77591;SDS011;66891;46.884;17.436;2023-05-29T11:35:28;15.32;;;7.60;;
77591;SDS011;66891;46.884;17.436;2023-05-29T11:37:59;14.02;;;7.00;;
77591;SDS011;66891;46.884;17.436;2023-05-29T11:40:34;13.55;;;7.15;;
77591;SDS011;66891;46.884;17.436;2023-05-29T11:43:03;13.57;;;7.15;;
77591;SDS011;66891;46.884;17.436;2023-05-29T11:45:32;12.43;;;6.80;;
77591;SDS011;66891;46.884;17.436;2023-05-29T11:48:02;12.35;;;6.03;;
77591;SDS011;66891;46.884;17.436;2023-05-29T11:50:31;9.82;;;4.95;;
77591;SDS011;66891;46.884;17.436;2023-05-29T11:53:00;13.55;;;5.22;;
77591;SDS011;66891;46.884;17.436;2023-05-29T11:55:28;12.20;;;5.22;;
77591;SDS011;66891;46.884;17.436;2023-05-29T11:57:56;10.57;;;4.87;;
77591;SDS011;66891;46.884;17.436;2023-05-29T12:00:25;12.88;;;5.93;;
77591;SDS011;66891;46.884;17.436;2023-05-29T12:02:57;12.27;;;5.80;;
77591;SDS011;66891;46.884;17.436;2023-05-29T12:05:25;14.77;;;6.18;;
77591;SDS011;66891;46.884;17.436;2023-05-29T12:07:53;12.70;;;5.38;;
77591;SDS011;66891;46.884;17.436;2023-05-29T12:10:25;10.20;;;4.30;;
77591;SDS011;66891;46.884;17.436;2023-05-29T12:12:54;12.25;;;5.53;;
77591;SDS011;66891;46.884;17.436;2023-05-29T12:15:22;11.35;;;5.20;;
77591;SDS011;66891;46.884;17.436;2023-05-29T12:17:50;12.43;;;4.70;;
77591;SDS011;66891;46.884;17.436;2023-05-29T12:20:19;11.25;;;5.25;;
77591;SDS011;66891;46.884;17.436;2023-05-29T12:22:48;13.10;;;5.33;;
77591;SDS011;66891;46.884;17.436;2023-05-29T12:25:16;11.48;;;5.10;;
77591;SDS011;66891;46.884;17.436;2023-05-29T12:27:47;10.40;;;4.90;;
77591;SDS011;66891;46.884;17.436;2023-05-29T12:30:19;10.48;;;4.25;;
77591;SDS011;66891;46.884;17.436;2023-05-29T12:32:59;11.02;;;4.90;;
77591;SDS011;66891;46.884;17.436;2023-05-29T12:35:28;10.53;;;4.90;;
77591;SDS011;66891;46.884;17.436;2023-05-29T12:37:56;9.73;;;4.28;;
77591;SDS011;66891;46.884;17.436;2023-05-29T12:40:25;11.27;;;4.85;;
77591;SDS011;66891;46.884;17.436;2023-05-29T12:42:55;10.70;;;5.18;;
77591;SDS011;66891;46.884;17.436;2023-05-29T12:45:24;10.38;;;5.00;;
77591;SDS011;66891;46.884;17.436;2023-05-29T12:47:53;9.73;;;4.60;;
77591;SDS011;66891;46.884;17.436;2023-05-29T12:50:24;10.63;;;4.85;;
77591;SDS011;66891;46.884;17.436;2023-05-29T12:52:56;10.05;;;5.32;;
77591;SDS011;66891;46.884;17.436;2023-05-29T12:55:25;11.18;;;4.45;;
77591;SDS011;66891;46.884;17.436;2023-05-29T12:57:54;11.13;;;4.70;;
77591;SDS011;66891;46.884;17.436;2023-05-29T13:00:22;11.67;;;4.97;;
77591;SDS011;66891;46.884;17.436;2023-05-29T13:02:50;11.48;;;5.30;;
77591;SDS011;66891;46.884;17.436;2023-05-29T13:05:18;10.45;;;5.13;;
77591;SDS011;66891;46.884;17.436;2023-05-29T13:07:46;10.68;;;5.20;;
77591;SDS011;66891;46.884;17.436;2023-05-29T13:10:14;10.45;;;5.15;;
77591;SDS011;66891;46.884;17.436;2023-05-29T13:12:42;13.07;;;5.40;;
77591;SDS011;66891;46.884;17.436;2023-05-29T13:15:12;10.55;;;5.22;;
77591;SDS011;66891;46.884;17.436;2023-05-29T13:17:40;10.40;;;4.70;;
77591;SDS011;66891;46.884;17.436;2023-05-29T13:20:08;9.43;;;4.88;;
77591;SDS011;66891;46.884;17.436;2023-05-29T13:22:37;9.85;;;4.57;;
77591;SDS011;66891;46.884;17.436;2023-05-29T13:25:06;10.20;;;4.83;;
77591;SDS011;66891;46.884;17.436;2023-05-29T13:27:36;11.18;;;4.75;;
77591;SDS011;66891;46.884;17.436;2023-05-29T13:30:05;11.68;;;4.97;;
77591;SDS011;66891;46.884;17.436;2023-05-29T13:32:34;10.25;;;5.07;;
77591;SDS011;66891;46.884;17.436;2023-05-29T13:35:02;10.15;;;4.90;;
77591;SDS011;66891;46.884;17.436;2023-05-29T13:37:30;9.93;;;4.43;;
77591;SDS011;66891;46.884;17.436;2023-05-29T13:39:58;11.43;;;5.03;;
77591;SDS011;66891;46.884;17.436;2023-05-29T13:42:25;10.88;;;5.00;;
77591;SDS011;66891;46.884;17.436;2023-05-29T13:44:53;11.20;;;4.95;;
77591;SDS011;66891;46.884;17.436;2023-05-29T13:47:21;10.23;;;4.75;;
77591;SDS011;66891;46.884;17.436;2023-05-29T13:49:49;11.97;;;5.30;;
77591;SDS011;66891;46.884;17.436;2023-05-29T13:52:17;9.35;;;4.53;;
77591;SDS011;66891;46.884;17.436;2023-05-29T13:54:44;10.27;;;5.10;;
77591;SDS011;66891;46.884;17.436;2023-05-29T13:57:11;11.38;;;4.57;;
77591;SDS011;66891;46.884;17.436;2023-05-29T13:59:39;12.38;;;5.03;;
77591;SDS011;66891;46.884;17.436;2023-05-29T14:02:06;11.23;;;5.07;;
77591;SDS011;66891;46.884;17.436;2023-05-29T14:04:35;9.35;;;4.75;;
77591;SDS011;66891;46.884;17.436;2023-05-29T14:07:03;11.15;;;5.35;;
77591;SDS011;66891;46.884;17.436;2023-05-29T14:09:31;10.65;;;5.18;;
77591;SDS011;66891;46.884;17.436;2023-05-29T14:11:59;10.18;;;4.88;;
77591;SDS011;66891;46.884;17.436;2023-05-29T14:14:27;11.37;;;5.20;;
77591;SDS011;66891;46.884;17.436;2023-05-29T14:16:54;10.27;;;5.38;;
77591;SDS011;66891;46.884;17.436;2023-05-29T14:19:22;10.07;;;5.35;;
77591;SDS011;66891;46.884;17.436;2023-05-29T14:21:49;10.15;;;5.63;;
77591;SDS011;66891;46.884;17.436;2023-05-29T14:24:19;10.43;;;5.18;;
77591;SDS011;66891;46.884;17.436;2023-05-29T14:26:46;12.20;;;4.80;;
77591;SDS011;66891;46.884;17.436;2023-05-29T14:29:14;11.50;;;5.30;;
77591;SDS011;66891;46.884;17.436;2023-05-29T14:31:41;10.02;;;5.50;;
77591;SDS011;66891;46.884;17.436;2023-05-29T14:34:11;10.15;;;4.57;;
77591;SDS011;66891;46.884;17.436;2023-05-29T14:36:39;9.98;;;5.10;;